sensor_id;sensor_type;location;lat;lon;timestamp;pressure;altitude;pressure_sealevel;temperature;humidity
11678;BME280;5895;41.950;24.372;2022-09-11T00:00:50;86892.56;;;16.33;83.70
11678;BME280;5895;41.950;24.372;2022-09-11T00:03:18;86882.28;;;16.27;83.35
11678;BME280;5895;41.950;24.372;2022-09-11T00:05:49;86881.50;;;16.21;83.20
11678;BME280;5895;41.950;24.372;2022-09-11T00:08:18;86878.88;;;16.11;83.19
11678;BME280;5895;41.950;24.372;2022-09-11T00:10:46;86873.06;;;16.04;83.11
11678;BME280;5895;41.950;24.372;2022-09-11T00:13:16;86880.09;;;15.98;82.92
11678;BME280;5895;41.950;24.372;2022-09-11T00:15:48;86877.22;;;15.95;83.35
11678;BME280;5895;41.950;24.372;2022-09-11T00:18:17;86874.31;;;15.91;83.18
11678;BME280;5895;41.950;24.372;2022-09-11T00:20:49;86882.94;;;15.86;83.64
11678;BME280;5895;41.950;24.372;2022-09-11T00:23:18;86876.63;;;15.82;83.16
11678;BME280;5895;41.950;24.372;2022-09-11T00:25:46;86873.47;;;15.75;83.18
11678;BME280;5895;41.950;24.372;2022-09-11T00:28:15;86877.38;;;15.73;83.41
11678;BME280;5895;41.950;24.372;2022-09-11T00:30:44;86867.72;;;15.73;83.93
11678;BME280;5895;41.950;24.372;2022-09-11T00:33:13;86870.59;;;15.72;83.74
11678;BME280;5895;41.950;24.372;2022-09-11T00:35:42;86872.16;;;15.73;83.93
11678;BME280;5895;41.950;24.372;2022-09-11T00:38:11;86870.81;;;15.70;84.49
11678;BME280;5895;41.950;24.372;2022-09-11T00:40:43;86875.53;;;15.68;85.14
11678;BME280;5895;41.950;24.372;2022-09-11T00:43:13;86875.25;;;15.65;84.11
11678;BME280;5895;41.950;24.372;2022-09-11T00:45:43;86867.09;;;15.61;83.89
11678;BME280;5895;41.950;24.372;2022-09-11T00:48:14;86876.75;;;15.55;83.27
11678;BME280;5895;41.950;24.372;2022-09-11T00:50:45;86862.56;;;15.46;83.67
11678;BME280;5895;41.950;24.372;2022-09-11T00:53:17;86865.44;;;15.45;84.40
11678;BME280;5895;41.950;24.372;2022-09-11T00:55:49;86855.47;;;15.42;84.82
11678;BME280;5895;41.950;24.372;2022-09-11T00:58:21;86863.31;;;15.42;85.28
11678;BME280;5895;41.950;24.372;2022-09-11T01:00:51;86867.00;;;15.46;85.22
11678;BME280;5895;41.950;24.372;2022-09-11T01:03:20;86865.19;;;15.46;84.87
11678;BME280;5895;41.950;24.372;2022-09-11T01:05:48;86867.00;;;15.46;85.06
11678;BME280;5895;41.950;24.372;2022-09-11T01:08:18;86858.13;;;15.47;85.36
11678;BME280;5895;41.950;24.372;2022-09-11T01:10:58;86861.03;;;15.50;86.97
11678;BME280;5895;41.950;24.372;2022-09-11T01:13:32;86859.19;;;15.51;86.56
11678;BME280;5895;41.950;24.372;2022-09-11T01:16:10;86856.84;;;15.49;85.55
11678;BME280;5895;41.950;24.372;2022-09-11T01:18:43;86848.22;;;15.49;85.77
11678;BME280;5895;41.950;24.372;2022-09-11T01:27:33;86852.41;;;15.50;87.90
11678;BME280;5895;41.950;24.372;2022-09-11T01:30:06;86849.22;;;15.48;85.00
11678;BME280;5895;41.950;24.372;2022-09-11T01:32:42;86852.91;;;15.47;85.72
11678;BME280;5895;41.950;24.372;2022-09-11T01:35:14;86843.97;;;15.43;85.51
11678;BME280;5895;41.950;24.372;2022-09-11T01:37:49;86849.47;;;15.41;85.56
11678;BME280;5895;41.950;24.372;2022-09-11T01:40:23;86846.31;;;15.39;84.97
11678;BME280;5895;41.950;24.372;2022-09-11T01:42:58;86847.34;;;15.33;85.19
11678;BME280;5895;41.950;24.372;2022-09-11T01:45:31;86840.75;;;15.25;84.04
11678;BME280;5895;41.950;24.372;2022-09-11T01:48:02;86837.09;;;15.21;83.95
11678;BME280;5895;41.950;24.372;2022-09-11T01:50:30;86835.47;;;15.15;84.31
11678;BME280;5895;41.950;24.372;2022-09-11T01:53:02;86829.44;;;15.15;84.88
11678;BME280;5895;41.950;24.372;2022-09-11T01:55:34;86832.31;;;15.13;85.01
11678;BME280;5895;41.950;24.372;2022-09-11T01:58:07;86834.88;;;15.08;84.57
11678;BME280;5895;41.950;24.372;2022-09-11T02:00:37;86832.53;;;15.06;84.55
11678;BME280;5895;41.950;24.372;2022-09-11T02:03:09;86832.00;;;15.04;84.72
11678;BME280;5895;41.950;24.372;2022-09-11T02:05:42;86831.22;;;15.04;84.74
11678;BME280;5895;41.950;24.372;2022-09-11T02:08:14;86827.00;;;15.03;84.36
11678;BME280;5895;41.950;24.372;2022-09-11T02:10:46;86833.81;;;14.99;85.16
11678;BME280;5895;41.950;24.372;2022-09-11T02:13:23;86824.38;;;14.98;86.28
11678;BME280;5895;41.950;24.372;2022-09-11T02:15:56;86825.41;;;14.97;85.29
11678;BME280;5895;41.950;24.372;2022-09-11T02:18:31;86823.56;;;14.97;85.85
11678;BME280;5895;41.950;24.372;2022-09-11T02:21:01;86830.63;;;14.97;85.18
11678;BME280;5895;41.950;24.372;2022-09-11T02:23:29;86829.59;;;14.93;84.77
11678;BME280;5895;41.950;24.372;2022-09-11T02:25:56;86831.13;;;14.89;84.23
11678;BME280;5895;41.950;24.372;2022-09-11T02:28:25;86836.03;;;14.85;84.76
11678;BME280;5895;41.950;24.372;2022-09-11T02:30:53;86830.53;;;14.81;84.21
11678;BME280;5895;41.950;24.372;2022-09-11T02:33:29;86831.03;;;14.78;85.24
11678;BME280;5895;41.950;24.372;2022-09-11T02:36:12;86829.16;;;14.74;85.40
11678;BME280;5895;41.950;24.372;2022-09-11T02:38:51;86830.22;;;14.73;85.65
11678;BME280;5895;41.950;24.372;2022-09-11T02:41:25;86828.91;;;14.70;85.39
11678;BME280;5895;41.950;24.372;2022-09-11T02:44:02;86834.13;;;14.70;85.70
11678;BME280;5895;41.950;24.372;2022-09-11T02:46:45;86833.31;;;14.70;85.63
11678;BME280;5895;41.950;24.372;2022-09-11T02:49:24;86827.50;;;14.63;84.63
11678;BME280;5895;41.950;24.372;2022-09-11T02:52:01;86838.16;;;14.56;84.45
11678;BME280;5895;41.950;24.372;2022-09-11T02:54:35;86829.50;;;14.50;84.67
11678;BME280;5895;41.950;24.372;2022-09-11T02:57:12;86841.66;;;14.40;83.07
11678;BME280;5895;41.950;24.372;2022-09-11T02:59:45;86843.44;;;14.34;83.70
11678;BME280;5895;41.950;24.372;2022-09-11T03:02:17;86840.50;;;14.30;83.86
11678;BME280;5895;41.950;24.372;2022-09-11T03:04:45;86842.59;;;14.28;83.13
11678;BME280;5895;41.950;24.372;2022-09-11T03:07:13;86842.59;;;14.28;83.59
11678;BME280;5895;41.950;24.372;2022-09-11T03:09:41;86843.09;;;14.25;83.70
11678;BME280;5895;41.950;24.372;2022-09-11T03:12:08;86846.97;;;14.23;83.09
11678;BME280;5895;41.950;24.372;2022-09-11T03:14:36;86844.03;;;14.14;83.33
11678;BME280;5895;41.950;24.372;2022-09-11T03:17:05;86836.69;;;14.11;83.08
11678;BME280;5895;41.950;24.372;2022-09-11T03:19:32;86842.38;;;14.08;83.91
11678;BME280;5895;41.950;24.372;2022-09-11T03:22:00;86848.41;;;14.09;83.91
11678;BME280;5895;41.950;24.372;2022-09-11T03:24:27;86841.13;;;14.11;84.72
11678;BME280;5895;41.950;24.372;2022-09-11T03:26:55;86844.50;;;14.11;83.69
11678;BME280;5895;41.950;24.372;2022-09-11T03:29:22;86840.81;;;14.07;84.29
11678;BME280;5895;41.950;24.372;2022-09-11T03:31:49;86848.91;;;14.06;84.13
11678;BME280;5895;41.950;24.372;2022-09-11T03:34:18;86845.50;;;14.05;83.83
11678;BME280;5895;41.950;24.372;2022-09-11T03:36:47;86844.97;;;14.03;84.15
11678;BME280;5895;41.950;24.372;2022-09-11T03:39:14;86840.75;;;14.02;83.50
11678;BME280;5895;41.950;24.372;2022-09-11T03:41:42;86844.91;;;13.98;83.42
11678;BME280;5895;41.950;24.372;2022-09-11T03:44:09;86849.56;;;13.96;83.29
11678;BME280;5895;41.950;24.372;2022-09-11T03:46:37;86848.72;;;13.90;83.59
11678;BME280;5895;41.950;24.372;2022-09-11T03:49:04;86843.22;;;13.87;83.94
11678;BME280;5895;41.950;24.372;2022-09-11T03:51:33;86842.66;;;13.85;83.43
11678;BME280;5895;41.950;24.372;2022-09-11T03:54:01;86853.59;;;13.82;83.64
11678;BME280;5895;41.950;24.372;2022-09-11T03:56:29;86852.81;;;13.81;83.75
11678;BME280;5895;41.950;24.372;2022-09-11T03:58:57;86852.56;;;13.83;83.66
11678;BME280;5895;41.950;24.372;2022-09-11T04:01:26;86859.59;;;13.82;83.48
11678;BME280;5895;41.950;24.372;2022-09-11T04:03:54;86852.50;;;13.77;82.93
11678;BME280;5895;41.950;24.372;2022-09-11T04:06:21;86852.97;;;13.74;82.52
11678;BME280;5895;41.950;24.372;2022-09-11T04:08:50;86853.94;;;13.68;82.70
11678;BME280;5895;41.950;24.372;2022-09-11T04:11:18;86856.28;;;13.65;82.85
11678;BME280;5895;41.950;24.372;2022-09-11T04:13:45;86849.50;;;13.64;83.17
11678;BME280;5895;41.950;24.372;2022-09-11T04:16:14;86846.06;;;13.63;84.14
11678;BME280;5895;41.950;24.372;2022-09-11T04:18:44;86853.16;;;13.68;84.63
11678;BME280;5895;41.950;24.372;2022-09-11T04:21:12;86848.25;;;13.71;84.69
11678;BME280;5895;41.950;24.372;2022-09-11T04:23:40;86856.63;;;13.73;84.88
11678;BME280;5895;41.950;24.372;2022-09-11T04:26:15;86860.00;;;13.74;84.01
11678;BME280;5895;41.950;24.372;2022-09-11T04:28:43;86862.34;;;13.70;84.24
11678;BME280;5895;41.950;24.372;2022-09-11T04:31:11;86857.59;;;13.67;84.43
11678;BME280;5895;41.950;24.372;2022-09-11T04:33:39;86860.78;;;13.69;83.80
11678;BME280;5895;41.950;24.372;2022-09-11T04:36:07;86863.91;;;13.71;84.45
11678;BME280;5895;41.950;24.372;2022-09-11T04:38:35;86866.78;;;13.70;84.07
11678;BME280;5895;41.950;24.372;2022-09-11T04:41:03;86859.16;;;13.68;83.10
11678;BME280;5895;41.950;24.372;2022-09-11T04:43:33;86863.38;;;13.69;83.46
11678;BME280;5895;41.950;24.372;2022-09-11T04:46:02;86852.97;;;13.74;83.46
11678;BME280;5895;41.950;24.372;2022-09-11T04:48:30;86855.13;;;13.77;83.65
11678;BME280;5895;41.950;24.372;2022-09-11T04:50:59;86844.75;;;13.83;83.69
11678;BME280;5895;41.950;24.372;2022-09-11T04:53:27;86847.69;;;13.91;84.95
11678;BME280;5895;41.950;24.372;2022-09-11T04:56:05;86850.19;;;14.03;86.99
11678;BME280;5895;41.950;24.372;2022-09-11T04:58:35;86847.13;;;14.11;86.11
11678;BME280;5895;41.950;24.372;2022-09-11T05:01:05;86851.34;;;14.17;85.89
11678;BME280;5895;41.950;24.372;2022-09-11T05:03:33;86850.88;;;14.20;84.66
11678;BME280;5895;41.950;24.372;2022-09-11T05:06:03;86848.31;;;14.25;84.38
11678;BME280;5895;41.950;24.372;2022-09-11T05:08:31;86850.41;;;14.28;84.64
11678;BME280;5895;41.950;24.372;2022-09-11T05:10:59;86845.25;;;14.34;84.00
11678;BME280;5895;41.950;24.372;2022-09-11T05:13:27;86836.69;;;14.38;84.73
11678;BME280;5895;41.950;24.372;2022-09-11T05:16:01;86840.59;;;14.41;84.86
11678;BME280;5895;41.950;24.372;2022-09-11T05:18:28;86839.03;;;14.40;84.18
11678;BME280;5895;41.950;24.372;2022-09-11T05:20:59;86836.19;;;14.41;84.22
11678;BME280;5895;41.950;24.372;2022-09-11T05:23:27;86840.13;;;14.44;84.74
11678;BME280;5895;41.950;24.372;2022-09-11T05:25:58;86839.41;;;14.48;85.38
11678;BME280;5895;41.950;24.372;2022-09-11T05:28:26;86828.22;;;14.53;85.19
11678;BME280;5895;41.950;24.372;2022-09-11T05:30:54;86823.59;;;14.60;85.43
11678;BME280;5895;41.950;24.372;2022-09-11T05:33:24;86830.69;;;14.70;85.87
11678;BME280;5895;41.950;24.372;2022-09-11T05:35:52;86823.72;;;14.80;85.20
11678;BME280;5895;41.950;24.372;2022-09-11T05:38:21;86823.03;;;14.90;85.39
11678;BME280;5895;41.950;24.372;2022-09-11T05:40:50;86834.31;;;15.01;85.25
11678;BME280;5895;41.950;24.372;2022-09-11T05:43:17;86830.75;;;15.12;85.21
11678;BME280;5895;41.950;24.372;2022-09-11T05:45:52;86823.50;;;15.24;86.02
11678;BME280;5895;41.950;24.372;2022-09-11T05:48:21;86828.00;;;15.34;84.94
11678;BME280;5895;41.950;24.372;2022-09-11T05:50:53;86834.84;;;15.45;87.10
11678;BME280;5895;41.950;24.372;2022-09-11T05:53:21;86830.97;;;15.53;86.15
11678;BME280;5895;41.950;24.372;2022-09-11T05:55:48;86833.09;;;15.61;86.14
11678;BME280;5895;41.950;24.372;2022-09-11T05:58:16;86829.75;;;15.71;85.69
11678;BME280;5895;41.950;24.372;2022-09-11T06:00:44;86834.50;;;15.79;85.37
11678;BME280;5895;41.950;24.372;2022-09-11T06:03:12;86825.09;;;15.88;84.87
11678;BME280;5895;41.950;24.372;2022-09-11T06:05:39;86829.06;;;15.96;84.84
11678;BME280;5895;41.950;24.372;2022-09-11T06:08:09;86832.25;;;16.08;83.71
11678;BME280;5895;41.950;24.372;2022-09-11T06:10:43;86837.78;;;16.17;82.66
11678;BME280;5895;41.950;24.372;2022-09-11T06:13:12;86837.00;;;16.26;79.83
11678;BME280;5895;41.950;24.372;2022-09-11T06:15:43;86831.00;;;16.36;79.70
11678;BME280;5895;41.950;24.372;2022-09-11T06:18:11;86831.53;;;16.43;78.92
11678;BME280;5895;41.950;24.372;2022-09-11T06:20:39;86825.03;;;16.51;77.95
11678;BME280;5895;41.950;24.372;2022-09-11T06:23:10;86828.69;;;16.60;77.98
11678;BME280;5895;41.950;24.372;2022-09-11T06:25:37;86830.81;;;16.68;77.25
11678;BME280;5895;41.950;24.372;2022-09-11T06:28:04;86824.53;;;16.74;77.16
11678;BME280;5895;41.950;24.372;2022-09-11T06:30:32;86832.94;;;16.81;76.43
11678;BME280;5895;41.950;24.372;2022-09-11T06:32:59;86830.56;;;16.85;76.39
11678;BME280;5895;41.950;24.372;2022-09-11T06:35:27;86833.44;;;16.93;76.40
11678;BME280;5895;41.950;24.372;2022-09-11T06:37:54;86834.00;;;17.01;75.51
11678;BME280;5895;41.950;24.372;2022-09-11T06:40:23;86837.41;;;17.06;75.42
11678;BME280;5895;41.950;24.372;2022-09-11T06:42:51;86829.50;;;17.11;74.60
11678;BME280;5895;41.950;24.372;2022-09-11T06:45:18;86834.75;;;17.22;74.76
11678;BME280;5895;41.950;24.372;2022-09-11T06:47:46;86830.81;;;17.29;74.42
11678;BME280;5895;41.950;24.372;2022-09-11T06:50:13;86833.94;;;17.41;74.49
11678;BME280;5895;41.950;24.372;2022-09-11T06:52:41;86837.34;;;17.52;74.16
11678;BME280;5895;41.950;24.372;2022-09-11T06:55:08;86841.50;;;17.63;73.63
11678;BME280;5895;41.950;24.372;2022-09-11T06:57:40;86839.66;;;17.74;73.36
11678;BME280;5895;41.950;24.372;2022-09-11T07:00:09;86837.28;;;17.78;72.46
11678;BME280;5895;41.950;24.372;2022-09-11T07:02:36;86843.84;;;17.80;72.71
11678;BME280;5895;41.950;24.372;2022-09-11T07:05:04;86850.66;;;17.86;72.29
11678;BME280;5895;41.950;24.372;2022-09-11T07:07:32;86846.41;;;17.95;71.99
11678;BME280;5895;41.950;24.372;2022-09-11T07:09:59;86840.63;;;18.04;71.69
11678;BME280;5895;41.950;24.372;2022-09-11T07:12:29;86844.78;;;18.10;71.72
11678;BME280;5895;41.950;24.372;2022-09-11T07:14:58;86850.53;;;18.17;71.19
11678;BME280;5895;41.950;24.372;2022-09-11T07:17:26;86851.84;;;18.19;70.73
11678;BME280;5895;41.950;24.372;2022-09-11T07:19:53;86855.75;;;18.27;71.13
11678;BME280;5895;41.950;24.372;2022-09-11T07:22:20;86855.69;;;18.37;70.97
11678;BME280;5895;41.950;24.372;2022-09-11T07:24:48;86854.63;;;18.43;70.68
11678;BME280;5895;41.950;24.372;2022-09-11T07:27:17;86853.50;;;18.55;70.55
11678;BME280;5895;41.950;24.372;2022-09-11T07:29:44;86853.22;;;18.61;69.63
11678;BME280;5895;41.950;24.372;2022-09-11T07:32:13;86860.81;;;18.68;69.92
11678;BME280;5895;41.950;24.372;2022-09-11T07:34:41;86863.41;;;18.73;70.09
11678;BME280;5895;41.950;24.372;2022-09-11T07:37:09;86864.94;;;18.84;69.46
11678;BME280;5895;41.950;24.372;2022-09-11T07:39:37;86863.56;;;18.92;69.43
11678;BME280;5895;41.950;24.372;2022-09-11T07:42:05;86855.38;;;18.98;69.02
11678;BME280;5895;41.950;24.372;2022-09-11T07:44:32;86864.81;;;19.05;68.83
11678;BME280;5895;41.950;24.372;2022-09-11T07:47:00;86861.03;;;19.16;68.40
11678;BME280;5895;41.950;24.372;2022-09-11T07:49:29;86861.75;;;19.26;68.31
11678;BME280;5895;41.950;24.372;2022-09-11T07:51:56;86863.78;;;19.35;68.17
11678;BME280;5895;41.950;24.372;2022-09-11T07:54:25;86851.59;;;19.44;67.42
11678;BME280;5895;41.950;24.372;2022-09-11T07:56:53;86853.41;;;19.48;67.53
11678;BME280;5895;41.950;24.372;2022-09-11T07:59:21;86859.63;;;19.58;67.50
11678;BME280;5895;41.950;24.372;2022-09-11T08:01:49;86864.34;;;19.66;68.01
11678;BME280;5895;41.950;24.372;2022-09-11T08:04:18;86855.50;;;19.80;68.22
11678;BME280;5895;41.950;24.372;2022-09-11T08:06:46;86867.28;;;19.88;67.99
11678;BME280;5895;41.950;24.372;2022-09-11T08:09:14;86869.25;;;20.01;67.03
11678;BME280;5895;41.950;24.372;2022-09-11T08:11:43;86873.34;;;20.13;67.21
11678;BME280;5895;41.950;24.372;2022-09-11T08:14:13;86866.50;;;20.12;67.05
11678;BME280;5895;41.950;24.372;2022-09-11T08:16:42;86867.53;;;20.16;67.50
11678;BME280;5895;41.950;24.372;2022-09-11T08:19:15;86860.56;;;20.25;66.44
11678;BME280;5895;41.950;24.372;2022-09-11T08:21:43;86856.53;;;20.32;66.37
11678;BME280;5895;41.950;24.372;2022-09-11T08:24:13;86854.03;;;20.41;66.01
11678;BME280;5895;41.950;24.372;2022-09-11T08:26:41;86854.75;;;20.52;65.50
11678;BME280;5895;41.950;24.372;2022-09-11T08:29:09;86850.13;;;20.63;65.65
11678;BME280;5895;41.950;24.372;2022-09-11T08:31:36;86849.56;;;20.66;64.96
11678;BME280;5895;41.950;24.372;2022-09-11T08:34:04;86847.44;;;20.68;64.73
11678;BME280;5895;41.950;24.372;2022-09-11T08:36:31;86839.88;;;20.80;64.57
11678;BME280;5895;41.950;24.372;2022-09-11T08:38:58;86829.13;;;20.95;63.94
11678;BME280;5895;41.950;24.372;2022-09-11T08:41:36;86834.66;;;21.12;61.98
11678;BME280;5895;41.950;24.372;2022-09-11T08:44:13;86829.16;;;21.28;61.74
11678;BME280;5895;41.950;24.372;2022-09-11T08:46:44;86841.66;;;21.41;63.67
11678;BME280;5895;41.950;24.372;2022-09-11T08:49:20;86837.56;;;21.49;61.93
11678;BME280;5895;41.950;24.372;2022-09-11T08:51:49;86835.69;;;21.49;63.20
11678;BME280;5895;41.950;24.372;2022-09-11T08:54:25;86839.25;;;21.58;60.48
11678;BME280;5895;41.950;24.372;2022-09-11T08:57:04;86830.56;;;21.72;60.05
11678;BME280;5895;41.950;24.372;2022-09-11T08:59:46;86828.84;;;21.81;59.08
11678;BME280;5895;41.950;24.372;2022-09-11T09:02:37;86830.72;;;21.94;58.96
11678;BME280;5895;41.950;24.372;2022-09-11T09:05:15;86828.50;;;22.01;58.93
11678;BME280;5895;41.950;24.372;2022-09-11T09:07:58;86817.22;;;21.96;58.95
11678;BME280;5895;41.950;24.372;2022-09-11T09:10:38;86819.97;;;22.04;60.22
11678;BME280;5895;41.950;24.372;2022-09-11T09:13:24;86823.53;;;22.13;58.86
11678;BME280;5895;41.950;24.372;2022-09-11T09:16:01;86820.41;;;22.11;60.52
11678;BME280;5895;41.950;24.372;2022-09-11T09:18:37;86817.47;;;22.27;61.34
11678;BME280;5895;41.950;24.372;2022-09-11T09:21:11;86824.63;;;22.40;60.11
11678;BME280;5895;41.950;24.372;2022-09-11T09:23:43;86817.28;;;22.51;61.17
11678;BME280;5895;41.950;24.372;2022-09-11T09:26:16;86822.34;;;22.75;60.55
11678;BME280;5895;41.950;24.372;2022-09-11T09:28:47;86821.13;;;22.94;60.70
11678;BME280;5895;41.950;24.372;2022-09-11T09:31:19;86807.00;;;23.13;58.72
11678;BME280;5895;41.950;24.372;2022-09-11T09:33:49;86807.81;;;23.22;59.88
11678;BME280;5895;41.950;24.372;2022-09-11T09:36:19;86799.53;;;23.37;58.08
11678;BME280;5895;41.950;24.372;2022-09-11T09:38:47;86796.47;;;23.44;59.59
11678;BME280;5895;41.950;24.372;2022-09-11T09:44:28;86798.75;;;23.59;55.43
11678;BME280;5895;41.950;24.372;2022-09-11T09:47:01;86794.19;;;23.73;59.08
11678;BME280;5895;41.950;24.372;2022-09-11T09:49:31;86799.66;;;23.77;57.75
11678;BME280;5895;41.950;24.372;2022-09-11T09:52:14;86793.41;;;24.04;58.04
11678;BME280;5895;41.950;24.372;2022-09-11T09:54:44;86791.94;;;24.29;58.65
11678;BME280;5895;41.950;24.372;2022-09-11T09:57:17;86790.03;;;24.52;55.54
11678;BME280;5895;41.950;24.372;2022-09-11T09:59:50;86794.41;;;24.57;53.42
11678;BME280;5895;41.950;24.372;2022-09-11T10:02:38;86793.06;;;24.76;52.79
11678;BME280;5895;41.950;24.372;2022-09-11T10:05:16;86792.78;;;24.87;53.64
11678;BME280;5895;41.950;24.372;2022-09-11T10:07:48;86785.44;;;25.01;56.67
11678;BME280;5895;41.950;24.372;2022-09-11T10:10:25;86789.22;;;25.00;52.38
11678;BME280;5895;41.950;24.372;2022-09-11T10:12:55;86794.56;;;25.26;57.04
11678;BME280;5895;41.950;24.372;2022-09-11T10:15:26;86783.78;;;25.40;56.20
11678;BME280;5895;41.950;24.372;2022-09-11T10:18:23;86778.13;;;25.67;50.41
11678;BME280;5895;41.950;24.372;2022-09-11T10:20:50;86774.81;;;25.96;55.99
11678;BME280;5895;41.950;24.372;2022-09-11T10:23:24;86779.22;;;25.92;50.76
11678;BME280;5895;41.950;24.372;2022-09-11T10:25:52;86786.44;;;25.66;56.74
11678;BME280;5895;41.950;24.372;2022-09-11T10:28:26;86778.94;;;25.42;52.64
11678;BME280;5895;41.950;24.372;2022-09-11T10:30:58;86783.00;;;25.56;53.29
11678;BME280;5895;41.950;24.372;2022-09-11T10:33:30;86774.88;;;25.79;56.20
11678;BME280;5895;41.950;24.372;2022-09-11T10:36:00;86779.00;;;26.15;56.88
11678;BME280;5895;41.950;24.372;2022-09-11T10:38:30;86769.09;;;26.32;54.42
11678;BME280;5895;41.950;24.372;2022-09-11T10:41:04;86773.31;;;26.33;52.92
11678;BME280;5895;41.950;24.372;2022-09-11T10:43:47;86772.72;;;26.66;50.64
11678;BME280;5895;41.950;24.372;2022-09-11T10:46:26;86775.66;;;26.73;49.24
11678;BME280;5895;41.950;24.372;2022-09-11T10:48:56;86773.44;;;26.75;54.40
11678;BME280;5895;41.950;24.372;2022-09-11T10:51:26;86773.84;;;26.95;54.30
11678;BME280;5895;41.950;24.372;2022-09-11T10:54:05;86771.19;;;27.15;49.45
11678;BME280;5895;41.950;24.372;2022-09-11T10:56:38;86776.38;;;26.82;53.65
11678;BME280;5895;41.950;24.372;2022-09-11T10:59:14;86771.56;;;26.76;54.03
11678;BME280;5895;41.950;24.372;2022-09-11T11:01:45;86771.97;;;26.57;55.21
11678;BME280;5895;41.950;24.372;2022-09-11T11:04:12;86774.53;;;26.83;55.33
11678;BME280;5895;41.950;24.372;2022-09-11T11:06:52;86767.31;;;27.13;51.37
11678;BME280;5895;41.950;24.372;2022-09-11T11:09:39;86763.56;;;27.35;49.51
11678;BME280;5895;41.950;24.372;2022-09-11T11:12:26;86777.72;;;27.48;49.70
11678;BME280;5895;41.950;24.372;2022-09-11T11:15:12;86764.22;;;27.74;48.54
11678;BME280;5895;41.950;24.372;2022-09-11T11:17:48;86752.78;;;27.73;46.40
11678;BME280;5895;41.950;24.372;2022-09-11T11:20:26;86755.88;;;27.75;47.20
11678;BME280;5895;41.950;24.372;2022-09-11T11:23:15;86753.00;;;27.80;46.97
11678;BME280;5895;41.950;24.372;2022-09-11T11:25:51;86757.13;;;27.57;52.80
11678;BME280;5895;41.950;24.372;2022-09-11T11:28:30;86763.78;;;27.21;51.76
11678;BME280;5895;41.950;24.372;2022-09-11T11:31:08;86769.69;;;26.76;50.33
11678;BME280;5895;41.950;24.372;2022-09-11T11:33:54;86768.88;;;26.37;50.96
11678;BME280;5895;41.950;24.372;2022-09-11T11:36:31;86763.25;;;26.48;50.91
11678;BME280;5895;41.950;24.372;2022-09-11T11:39:06;86752.16;;;26.75;54.36
11678;BME280;5895;41.950;24.372;2022-09-11T11:41:41;86751.19;;;27.09;53.80
11678;BME280;5895;41.950;24.372;2022-09-11T11:44:13;86743.94;;;27.19;52.56
11678;BME280;5895;41.950;24.372;2022-09-11T11:46:45;86739.00;;;27.29;51.95
11678;BME280;5895;41.950;24.372;2022-09-11T11:49:19;86740.03;;;27.37;49.31
11678;BME280;5895;41.950;24.372;2022-09-11T11:51:53;86741.47;;;27.34;49.72
11678;BME280;5895;41.950;24.372;2022-09-11T11:54:29;86740.53;;;27.51;52.44
11678;BME280;5895;41.950;24.372;2022-09-11T11:57:04;86736.91;;;27.56;51.12
11678;BME280;5895;41.950;24.372;2022-09-11T11:59:39;86722.25;;;27.62;48.77
11678;BME280;5895;41.950;24.372;2022-09-11T12:02:14;86728.66;;;27.82;48.90
11678;BME280;5895;41.950;24.372;2022-09-11T12:04:51;86723.44;;;27.73;47.97
11678;BME280;5895;41.950;24.372;2022-09-11T12:07:25;86738.06;;;27.67;50.92
11678;BME280;5895;41.950;24.372;2022-09-11T12:09:54;86731.28;;;27.90;52.55
11678;BME280;5895;41.950;24.372;2022-09-11T12:12:26;86725.25;;;27.93;50.17
11678;BME280;5895;41.950;24.372;2022-09-11T12:14:55;86726.59;;;27.87;53.03
11678;BME280;5895;41.950;24.372;2022-09-11T12:17:25;86720.56;;;27.78;52.73
11678;BME280;5895;41.950;24.372;2022-09-11T12:20:34;86726.16;;;27.98;46.95
11678;BME280;5895;41.950;24.372;2022-09-11T12:23:06;86727.66;;;28.19;51.69
11678;BME280;5895;41.950;24.372;2022-09-11T12:26:14;86721.56;;;28.31;44.90
11678;BME280;5895;41.950;24.372;2022-09-11T12:28:42;86719.53;;;28.28;52.58
11678;BME280;5895;41.950;24.372;2022-09-11T12:31:11;86723.09;;;28.20;52.10
11678;BME280;5895;41.950;24.372;2022-09-11T12:33:52;86718.38;;;27.92;45.19
11678;BME280;5895;41.950;24.372;2022-09-11T12:36:49;86717.78;;;27.33;44.81
11678;BME280;5895;41.950;24.372;2022-09-11T12:39:24;86716.84;;;26.66;49.13
11678;BME280;5895;41.950;24.372;2022-09-11T12:44:59;86716.88;;;25.55;56.32
11678;BME280;5895;41.950;24.372;2022-09-11T12:47:32;86714.97;;;25.64;54.35
11678;BME280;5895;41.950;24.372;2022-09-11T12:50:13;86707.75;;;25.91;51.81
11678;BME280;5895;41.950;24.372;2022-09-11T12:52:50;86706.47;;;25.97;51.68
11678;BME280;5895;41.950;24.372;2022-09-11T12:55:29;86700.44;;;25.70;50.71
11678;BME280;5895;41.950;24.372;2022-09-11T12:58:00;86696.34;;;25.90;54.39
11678;BME280;5895;41.950;24.372;2022-09-11T13:00:34;86700.09;;;26.27;51.07
11678;BME280;5895;41.950;24.372;2022-09-11T13:03:04;86710.50;;;26.03;54.06
11678;BME280;5895;41.950;24.372;2022-09-11T13:05:35;86709.69;;;25.47;53.97
11678;BME280;5895;41.950;24.372;2022-09-11T13:08:12;86705.50;;;25.02;52.41
11678;BME280;5895;41.950;24.372;2022-09-11T13:10:42;86709.53;;;24.74;56.05
11678;BME280;5895;41.950;24.372;2022-09-11T13:16:17;86686.31;;;25.23;52.63
11678;BME280;5895;41.950;24.372;2022-09-11T13:18:45;86687.88;;;24.98;55.49
11678;BME280;5895;41.950;24.372;2022-09-11T13:21:14;86693.47;;;24.62;55.22
11678;BME280;5895;41.950;24.372;2022-09-11T13:23:45;86703.06;;;24.32;55.60
11678;BME280;5895;41.950;24.372;2022-09-11T13:26:22;86701.28;;;24.10;52.70
11678;BME280;5895;41.950;24.372;2022-09-11T13:28:52;86688.59;;;24.46;55.79
11678;BME280;5895;41.950;24.372;2022-09-11T13:31:28;86680.66;;;24.72;51.92
11678;BME280;5895;41.950;24.372;2022-09-11T13:33:57;86686.13;;;24.50;55.76
11678;BME280;5895;41.950;24.372;2022-09-11T13:36:25;86688.91;;;24.45;55.77
11678;BME280;5895;41.950;24.372;2022-09-11T13:38:56;86701.00;;;24.28;55.38